sensor_id;sensor_type;location;lat;lon;timestamp;temperature;humidity
72380;SHT30;60354;47.798;12.472;2023-08-08T00:01:22;12.60;77.87
72380;SHT30;60354;47.798;12.472;2023-08-08T00:03:47;12.56;79.67
72380;SHT30;60354;47.798;12.472;2023-08-08T00:06:13;12.48;80.46
72380;SHT30;60354;47.798;12.472;2023-08-08T00:08:39;12.48;80.66
72380;SHT30;60354;47.798;12.472;2023-08-08T00:11:04;12.39;81.89
72380;SHT30;60354;47.798;12.472;2023-08-08T00:13:30;12.34;82.62
72380;SHT30;60354;47.798;12.472;2023-08-08T00:15:55;12.28;81.86
72380;SHT30;60354;47.798;12.472;2023-08-08T00:18:21;12.20;83.16
72380;SHT30;60354;47.798;12.472;2023-08-08T00:20:46;12.21;83.48
72380;SHT30;60354;47.798;12.472;2023-08-08T00:23:12;12.10;83.31
72380;SHT30;60354;47.798;12.472;2023-08-08T00:25:37;12.04;82.75
72380;SHT30;60354;47.798;12.472;2023-08-08T00:28:03;11.97;83.68
72380;SHT30;60354;47.798;12.472;2023-08-08T00:30:29;11.91;83.90
72380;SHT30;60354;47.798;12.472;2023-08-08T00:32:55;11.87;83.83
72380;SHT30;60354;47.798;12.472;2023-08-08T00:35:21;11.87;83.71
72380;SHT30;60354;47.798;12.472;2023-08-08T00:37:47;11.77;84.48
72380;SHT30;60354;47.798;12.472;2023-08-08T00:40:12;11.80;84.32
72380;SHT30;60354;47.798;12.472;2023-08-08T00:42:37;11.76;84.03
72380;SHT30;60354;47.798;12.472;2023-08-08T00:45:03;11.74;84.05
72380;SHT30;60354;47.798;12.472;2023-08-08T00:47:32;11.71;83.65
72380;SHT30;60354;47.798;12.472;2023-08-08T00:50:01;11.73;83.31
72380;SHT30;60354;47.798;12.472;2023-08-08T00:52:28;11.70;83.83
72380;SHT30;60354;47.798;12.472;2023-08-08T00:54:55;11.67;84.54
72380;SHT30;60354;47.798;12.472;2023-08-08T00:57:20;11.67;84.10
72380;SHT30;60354;47.798;12.472;2023-08-08T00:59:46;11.67;83.80
72380;SHT30;60354;47.798;12.472;2023-08-08T01:02:13;11.64;84.22
72380;SHT30;60354;47.798;12.472;2023-08-08T01:04:39;11.62;83.88
72380;SHT30;60354;47.798;12.472;2023-08-08T01:09:59;11.54;84.56
72380;SHT30;60354;47.798;12.472;2023-08-08T01:12:30;11.54;84.34
72380;SHT30;60354;47.798;12.472;2023-08-08T01:14:56;11.50;83.69
72380;SHT30;60354;47.798;12.472;2023-08-08T01:17:24;11.50;84.32
72380;SHT30;60354;47.798;12.472;2023-08-08T01:19:51;11.46;84.54
72380;SHT30;60354;47.798;12.472;2023-08-08T01:22:24;11.46;84.57
72380;SHT30;60354;47.798;12.472;2023-08-08T01:24:51;11.49;84.39
72380;SHT30;60354;47.798;12.472;2023-08-08T01:27:17;11.50;84.47
72380;SHT30;60354;47.798;12.472;2023-08-08T01:29:43;11.52;84.11
72380;SHT30;60354;47.798;12.472;2023-08-08T01:32:08;11.47;83.99
72380;SHT30;60354;47.798;12.472;2023-08-08T01:34:36;11.53;83.93
72380;SHT30;60354;47.798;12.472;2023-08-08T01:39:42;11.54;83.85
72380;SHT30;60354;47.798;12.472;2023-08-08T01:42:08;11.53;83.38
72380;SHT30;60354;47.798;12.472;2023-08-08T01:44:34;11.59;83.45
72380;SHT30;60354;47.798;12.472;2023-08-08T01:47:00;11.59;82.89
72380;SHT30;60354;47.798;12.472;2023-08-08T01:49:26;11.67;82.01
72380;SHT30;60354;47.798;12.472;2023-08-08T01:51:51;11.64;82.43
72380;SHT30;60354;47.798;12.472;2023-08-08T01:54:18;11.66;82.41
72380;SHT30;60354;47.798;12.472;2023-08-08T01:56:43;11.63;82.82
72380;SHT30;60354;47.798;12.472;2023-08-08T01:59:09;11.69;82.24
72380;SHT30;60354;47.798;12.472;2023-08-08T02:01:35;11.70;82.36
72380;SHT30;60354;47.798;12.472;2023-08-08T02:04:00;11.70;82.05
72380;SHT30;60354;47.798;12.472;2023-08-08T02:06:26;11.76;82.51
72380;SHT30;60354;47.798;12.472;2023-08-08T02:08:51;11.76;82.11
72380;SHT30;60354;47.798;12.472;2023-08-08T02:11:17;11.73;82.03
72380;SHT30;60354;47.798;12.472;2023-08-08T02:13:42;11.69;81.99
72380;SHT30;60354;47.798;12.472;2023-08-08T02:16:08;11.63;82.42
72380;SHT30;60354;47.798;12.472;2023-08-08T02:18:33;11.66;82.29
72380;SHT30;60354;47.798;12.472;2023-08-08T02:21:00;11.66;81.92
72380;SHT30;60354;47.798;12.472;2023-08-08T02:23:26;11.73;80.93
72380;SHT30;60354;47.798;12.472;2023-08-08T02:25:51;11.71;81.29
72380;SHT30;60354;47.798;12.472;2023-08-08T02:28:17;11.71;81.73
72380;SHT30;60354;47.798;12.472;2023-08-08T02:30:44;11.69;81.84
72380;SHT30;60354;47.798;12.472;2023-08-08T02:33:09;11.71;81.59
72380;SHT30;60354;47.798;12.472;2023-08-08T02:35:36;11.64;81.86
72380;SHT30;60354;47.798;12.472;2023-08-08T02:38:03;11.63;81.75
72380;SHT30;60354;47.798;12.472;2023-08-08T02:40:29;11.62;81.75
72380;SHT30;60354;47.798;12.472;2023-08-08T02:42:55;11.59;81.46
72380;SHT30;60354;47.798;12.472;2023-08-08T02:45:21;11.53;82.10
72380;SHT30;60354;47.798;12.472;2023-08-08T02:47:46;11.53;82.15
72380;SHT30;60354;47.798;12.472;2023-08-08T02:50:12;11.50;82.28
72380;SHT30;60354;47.798;12.472;2023-08-08T02:52:38;11.49;82.43
72380;SHT30;60354;47.798;12.472;2023-08-08T02:55:04;11.52;82.25
72380;SHT30;60354;47.798;12.472;2023-08-08T02:57:30;11.49;82.07
72380;SHT30;60354;47.798;12.472;2023-08-08T02:59:56;11.44;82.34
72380;SHT30;60354;47.798;12.472;2023-08-08T03:02:22;11.42;82.23
72380;SHT30;60354;47.798;12.472;2023-08-08T03:04:48;11.46;81.43
72380;SHT30;60354;47.798;12.472;2023-08-08T03:07:13;11.42;81.98
72380;SHT30;60354;47.798;12.472;2023-08-08T03:09:39;11.42;81.88
72380;SHT30;60354;47.798;12.472;2023-08-08T03:12:08;11.40;82.00
72380;SHT30;60354;47.798;12.472;2023-08-08T03:14:34;11.37;82.15
72380;SHT30;60354;47.798;12.472;2023-08-08T03:17:02;11.32;82.44
72380;SHT30;60354;47.798;12.472;2023-08-08T03:19:27;11.32;82.44
72380;SHT30;60354;47.798;12.472;2023-08-08T03:21:53;11.27;82.69
72380;SHT30;60354;47.798;12.472;2023-08-08T03:24:20;11.35;82.21
72380;SHT30;60354;47.798;12.472;2023-08-08T03:26:45;11.30;82.56
72380;SHT30;60354;47.798;12.472;2023-08-08T03:29:11;11.29;82.06
72380;SHT30;60354;47.798;12.472;2023-08-08T03:31:42;11.27;81.72
72380;SHT30;60354;47.798;12.472;2023-08-08T03:34:08;11.33;81.82
72380;SHT30;60354;47.798;12.472;2023-08-08T03:36:34;11.29;82.04
72380;SHT30;60354;47.798;12.472;2023-08-08T03:38:59;11.29;81.76
72380;SHT30;60354;47.798;12.472;2023-08-08T03:41:25;11.32;81.72
72380;SHT30;60354;47.798;12.472;2023-08-08T03:43:51;11.32;81.65
72380;SHT30;60354;47.798;12.472;2023-08-08T03:46:17;11.29;81.51
72380;SHT30;60354;47.798;12.472;2023-08-08T03:48:43;11.33;81.28
72380;SHT30;60354;47.798;12.472;2023-08-08T03:51:08;11.30;81.66
72380;SHT30;60354;47.798;12.472;2023-08-08T03:53:34;11.27;82.11
72380;SHT30;60354;47.798;12.472;2023-08-08T03:55:59;11.27;82.05
72380;SHT30;60354;47.798;12.472;2023-08-08T03:58:25;11.27;82.38
72380;SHT30;60354;47.798;12.472;2023-08-08T04:00:50;11.22;82.04
72380;SHT30;60354;47.798;12.472;2023-08-08T04:03:18;11.26;82.14
72380;SHT30;60354;47.798;12.472;2023-08-08T04:05:44;11.26;82.09
72380;SHT30;60354;47.798;12.472;2023-08-08T04:08:14;11.27;82.40
72380;SHT30;60354;47.798;12.472;2023-08-08T04:10:40;11.20;82.54
72380;SHT30;60354;47.798;12.472;2023-08-08T04:13:06;11.20;82.67
72380;SHT30;60354;47.798;12.472;2023-08-08T04:15:31;11.25;82.41
72380;SHT30;60354;47.798;12.472;2023-08-08T04:17:57;11.26;82.69
72380;SHT30;60354;47.798;12.472;2023-08-08T04:20:22;11.27;82.79
72380;SHT30;60354;47.798;12.472;2023-08-08T04:22:48;11.30;82.67
72380;SHT30;60354;47.798;12.472;2023-08-08T04:25:14;11.32;82.41
72380;SHT30;60354;47.798;12.472;2023-08-08T04:27:40;11.26;82.71
72380;SHT30;60354;47.798;12.472;2023-08-08T04:30:06;11.32;82.23
72380;SHT30;60354;47.798;12.472;2023-08-08T04:32:33;11.39;81.86
72380;SHT30;60354;47.798;12.472;2023-08-08T04:34:58;11.36;82.04
72380;SHT30;60354;47.798;12.472;2023-08-08T04:37:24;11.39;82.36
72380;SHT30;60354;47.798;12.472;2023-08-08T04:39:49;11.42;82.46
72380;SHT30;60354;47.798;12.472;2023-08-08T04:42:15;11.39;82.53
72380;SHT30;60354;47.798;12.472;2023-08-08T04:44:40;11.35;82.47
72380;SHT30;60354;47.798;12.472;2023-08-08T04:47:06;11.39;82.64
72380;SHT30;60354;47.798;12.472;2023-08-08T04:49:31;11.43;82.08
72380;SHT30;60354;47.798;12.472;2023-08-08T04:51:57;11.46;82.40
72380;SHT30;60354;47.798;12.472;2023-08-08T04:54:22;11.44;81.94
72380;SHT30;60354;47.798;12.472;2023-08-08T04:56:48;11.56;81.34
72380;SHT30;60354;47.798;12.472;2023-08-08T04:59:13;11.66;81.18
72380;SHT30;60354;47.798;12.472;2023-08-08T05:01:38;11.69;81.44
72380;SHT30;60354;47.798;12.472;2023-08-08T05:04:04;11.73;80.89
72380;SHT30;60354;47.798;12.472;2023-08-08T05:06:30;11.78;80.32
72380;SHT30;60354;47.798;12.472;2023-08-08T05:08:56;11.86;80.72
72380;SHT30;60354;47.798;12.472;2023-08-08T05:11:22;11.87;80.34
72380;SHT30;60354;47.798;12.472;2023-08-08T05:13:48;11.87;80.59
72380;SHT30;60354;47.798;12.472;2023-08-08T05:16:13;11.87;80.74
72380;SHT30;60354;47.798;12.472;2023-08-08T05:18:39;11.91;80.75
72380;SHT30;60354;47.798;12.472;2023-08-08T05:21:06;11.88;80.67
72380;SHT30;60354;47.798;12.472;2023-08-08T05:23:31;11.90;80.82
72380;SHT30;60354;47.798;12.472;2023-08-08T05:25:57;11.94;80.50
72380;SHT30;60354;47.798;12.472;2023-08-08T05:28:22;11.99;80.31
72380;SHT30;60354;47.798;12.472;2023-08-08T05:30:47;11.97;80.06
72380;SHT30;60354;47.798;12.472;2023-08-08T05:33:13;12.02;80.20
72380;SHT30;60354;47.798;12.472;2023-08-08T05:35:38;12.10;79.66
72380;SHT30;60354;47.798;12.472;2023-08-08T05:38:04;12.24;78.97
72380;SHT30;60354;47.798;12.472;2023-08-08T05:40:29;12.38;78.85
72380;SHT30;60354;47.798;12.472;2023-08-08T05:42:55;12.57;78.48
72380;SHT30;60354;47.798;12.472;2023-08-08T05:45:20;12.69;78.49
72380;SHT30;60354;47.798;12.472;2023-08-08T05:47:46;12.90;77.35
72380;SHT30;60354;47.798;12.472;2023-08-08T05:50:11;13.08;75.76
72380;SHT30;60354;47.798;12.472;2023-08-08T05:52:36;13.50;75.54
72380;SHT30;60354;47.798;12.472;2023-08-08T05:55:02;13.74;74.36
72380;SHT30;60354;47.798;12.472;2023-08-08T05:57:28;13.96;73.35
72380;SHT30;60354;47.798;12.472;2023-08-08T05:59:53;14.44;71.83
72380;SHT30;60354;47.798;12.472;2023-08-08T06:02:19;14.44;72.22
72380;SHT30;60354;47.798;12.472;2023-08-08T06:04:44;14.32;72.66
72380;SHT30;60354;47.798;12.472;2023-08-08T06:07:10;14.20;72.47
72380;SHT30;60354;47.798;12.472;2023-08-08T06:09:36;14.09;73.04
72380;SHT30;60354;47.798;12.472;2023-08-08T06:12:03;14.10;72.96
72380;SHT30;60354;47.798;12.472;2023-08-08T06:14:28;14.17;72.95
72380;SHT30;60354;47.798;12.472;2023-08-08T06:16:54;14.09;72.49
72380;SHT30;60354;47.798;12.472;2023-08-08T06:19:19;14.04;72.82
72380;SHT30;60354;47.798;12.472;2023-08-08T06:21:46;13.98;73.50
72380;SHT30;60354;47.798;12.472;2023-08-08T06:24:11;13.98;73.98
72380;SHT30;60354;47.798;12.472;2023-08-08T06:26:37;13.88;73.88
72380;SHT30;60354;47.798;12.472;2023-08-08T06:29:02;13.85;74.05
72380;SHT30;60354;47.798;12.472;2023-08-08T06:31:29;13.95;74.22
72380;SHT30;60354;47.798;12.472;2023-08-08T06:33:54;13.96;74.51
72380;SHT30;60354;47.798;12.472;2023-08-08T06:36:20;13.95;74.08
72380;SHT30;60354;47.798;12.472;2023-08-08T06:38:45;13.98;74.66
72380;SHT30;60354;47.798;12.472;2023-08-08T06:41:11;13.98;74.35
72380;SHT30;60354;47.798;12.472;2023-08-08T06:43:36;13.98;74.32
72380;SHT30;60354;47.798;12.472;2023-08-08T06:46:02;14.09;73.84
72380;SHT30;60354;47.798;12.472;2023-08-08T06:48:27;14.05;73.10
72380;SHT30;60354;47.798;12.472;2023-08-08T06:50:53;14.16;72.29
72380;SHT30;60354;47.798;12.472;2023-08-08T06:53:18;14.27;72.59
72380;SHT30;60354;47.798;12.472;2023-08-08T06:55:44;14.76;71.35
72380;SHT30;60354;47.798;12.472;2023-08-08T06:58:09;15.16;69.12
72380;SHT30;60354;47.798;12.472;2023-08-08T07:00:35;15.66;68.25
72380;SHT30;60354;47.798;12.472;2023-08-08T07:03:00;15.94;66.80
72380;SHT30;60354;47.798;12.472;2023-08-08T07:05:26;16.14;65.66
72380;SHT30;60354;47.798;12.472;2023-08-08T07:07:51;16.51;64.85
72380;SHT30;60354;47.798;12.472;2023-08-08T07:10:18;16.90;63.25
72380;SHT30;60354;47.798;12.472;2023-08-08T07:12:43;17.07;63.90
72380;SHT30;60354;47.798;12.472;2023-08-08T07:15:09;17.10;63.76
72380;SHT30;60354;47.798;12.472;2023-08-08T07:17:34;17.44;62.26
72380;SHT30;60354;47.798;12.472;2023-08-08T07:20:00;17.47;62.27
72380;SHT30;60354;47.798;12.472;2023-08-08T07:22:26;17.51;61.00
72380;SHT30;60354;47.798;12.472;2023-08-08T07:24:51;17.74;61.98
72380;SHT30;60354;47.798;12.472;2023-08-08T07:27:17;17.82;62.48
72380;SHT30;60354;47.798;12.472;2023-08-08T07:29:42;18.16;61.28
72380;SHT30;60354;47.798;12.472;2023-08-08T07:32:08;18.18;61.75
72380;SHT30;60354;47.798;12.472;2023-08-08T07:34:34;17.88;61.63
72380;SHT30;60354;47.798;12.472;2023-08-08T07:37:00;18.12;62.39
72380;SHT30;60354;47.798;12.472;2023-08-08T07:39:25;18.26;60.93
72380;SHT30;60354;47.798;12.472;2023-08-08T07:41:51;18.33;60.44
72380;SHT30;60354;47.798;12.472;2023-08-08T07:44:17;18.18;60.17
72380;SHT30;60354;47.798;12.472;2023-08-08T07:46:42;18.43;60.30
72380;SHT30;60354;47.798;12.472;2023-08-08T07:49:08;18.73;58.90
72380;SHT30;60354;47.798;12.472;2023-08-08T07:51:35;18.90;58.62
72380;SHT30;60354;47.798;12.472;2023-08-08T07:54:01;19.01;59.79
72380;SHT30;60354;47.798;12.472;2023-08-08T07:56:26;19.10;56.17
72380;SHT30;60354;47.798;12.472;2023-08-08T07:58:52;19.31;56.01
72380;SHT30;60354;47.798;12.472;2023-08-08T08:01:18;19.63;55.04
72380;SHT30;60354;47.798;12.472;2023-08-08T08:03:44;19.68;54.44
72380;SHT30;60354;47.798;12.472;2023-08-08T08:06:11;19.76;53.50
72380;SHT30;60354;47.798;12.472;2023-08-08T08:08:36;19.82;53.73
72380;SHT30;60354;47.798;12.472;2023-08-08T08:11:02;19.97;54.89
72380;SHT30;60354;47.798;12.472;2023-08-08T08:13:28;20.17;52.77
72380;SHT30;60354;47.798;12.472;2023-08-08T08:15:53;19.97;53.37
72380;SHT30;60354;47.798;12.472;2023-08-08T08:18:19;20.00;54.06
72380;SHT30;60354;47.798;12.472;2023-08-08T08:20:46;20.03;53.78
72380;SHT30;60354;47.798;12.472;2023-08-08T08:23:12;20.16;53.11
72380;SHT30;60354;47.798;12.472;2023-08-08T08:25:37;20.20;53.13
72380;SHT30;60354;47.798;12.472;2023-08-08T08:28:03;20.52;52.92
72380;SHT30;60354;47.798;12.472;2023-08-08T08:30:28;20.85;52.04
72380;SHT30;60354;47.798;12.472;2023-08-08T08:32:54;21.00;50.40
72380;SHT30;60354;47.798;12.472;2023-08-08T08:35:19;21.29;52.39
72380;SHT30;60354;47.798;12.472;2023-08-08T08:37:46;21.27;50.97
72380;SHT30;60354;47.798;12.472;2023-08-08T08:40:11;21.37;50.46
72380;SHT30;60354;47.798;12.472;2023-08-08T08:42:38;21.45;52.14
72380;SHT30;60354;47.798;12.472;2023-08-08T08:45:04;21.67;50.16
72380;SHT30;60354;47.798;12.472;2023-08-08T08:47:31;21.61;49.16
72380;SHT30;60354;47.798;12.472;2023-08-08T08:49:58;21.88;49.47
72380;SHT30;60354;47.798;12.472;2023-08-08T08:52:23;22.01;50.37
72380;SHT30;60354;47.798;12.472;2023-08-08T08:54:52;21.86;48.20
72380;SHT30;60354;47.798;12.472;2023-08-08T08:57:18;21.83;49.11
72380;SHT30;60354;47.798;12.472;2023-08-08T08:59:45;22.07;46.50
72380;SHT30;60354;47.798;12.472;2023-08-08T09:02:11;22.11;47.93
72380;SHT30;60354;47.798;12.472;2023-08-08T09:04:37;22.32;46.77
72380;SHT30;60354;47.798;12.472;2023-08-08T09:07:05;22.35;44.50
72380;SHT30;60354;47.798;12.472;2023-08-08T09:09:34;22.45;43.77
72380;SHT30;60354;47.798;12.472;2023-08-08T09:12:03;22.32;44.75
72380;SHT30;60354;47.798;12.472;2023-08-08T09:14:30;22.60;42.56
72380;SHT30;60354;47.798;12.472;2023-08-08T09:16:56;22.70;42.89
72380;SHT30;60354;47.798;12.472;2023-08-08T09:19:23;22.90;44.43
72380;SHT30;60354;47.798;12.472;2023-08-08T09:21:50;23.11;43.68
72380;SHT30;60354;47.798;12.472;2023-08-08T09:24:16;23.17;41.95
72380;SHT30;60354;47.798;12.472;2023-08-08T09:26:42;23.02;41.76
72380;SHT30;60354;47.798;12.472;2023-08-08T09:29:08;23.24;40.73
72380;SHT30;60354;47.798;12.472;2023-08-08T09:31:35;23.28;40.34
72380;SHT30;60354;47.798;12.472;2023-08-08T09:34:02;23.37;41.16
72380;SHT30;60354;47.798;12.472;2023-08-08T09:36:28;23.31;40.67
72380;SHT30;60354;47.798;12.472;2023-08-08T09:38:54;23.46;42.00
72380;SHT30;60354;47.798;12.472;2023-08-08T09:41:21;23.55;40.65
72380;SHT30;60354;47.798;12.472;2023-08-08T09:43:51;23.46;39.60
72380;SHT30;60354;47.798;12.472;2023-08-08T09:46:20;23.44;38.99
72380;SHT30;60354;47.798;12.472;2023-08-08T09:48:46;23.48;40.89
72380;SHT30;60354;47.798;12.472;2023-08-08T09:51:12;23.74;40.25
72380;SHT30;60354;47.798;12.472;2023-08-08T09:53:39;23.04;42.05
72380;SHT30;60354;47.798;12.472;2023-08-08T09:56:05;23.28;41.94
72380;SHT30;60354;47.798;12.472;2023-08-08T09:58:31;22.90;39.80
72380;SHT30;60354;47.798;12.472;2023-08-08T10:00:57;23.06;39.55
72380;SHT30;60354;47.798;12.472;2023-08-08T10:03:23;23.06;42.03
72380;SHT30;60354;47.798;12.472;2023-08-08T10:05:49;23.08;40.59
72380;SHT30;60354;47.798;12.472;2023-08-08T10:08:15;23.31;41.55
72380;SHT30;60354;47.798;12.472;2023-08-08T10:10:43;22.97;41.93
72380;SHT30;60354;47.798;12.472;2023-08-08T10:13:10;22.92;41.72
72380;SHT30;60354;47.798;12.472;2023-08-08T10:15:39;22.76;40.02
72380;SHT30;60354;47.798;12.472;2023-08-08T10:18:05;22.70;40.13
72380;SHT30;60354;47.798;12.472;2023-08-08T10:20:31;22.99;43.01
72380;SHT30;60354;47.798;12.472;2023-08-08T10:23:02;22.76;41.51
72380;SHT30;60354;47.798;12.472;2023-08-08T10:25:28;23.08;43.74
72380;SHT30;60354;47.798;12.472;2023-08-08T10:28:08;22.18;42.83
72380;SHT30;60354;47.798;12.472;2023-08-08T10:33:21;22.46;46.00
72380;SHT30;60354;47.798;12.472;2023-08-08T10:38:24;22.38;45.38
72380;SHT30;60354;47.798;12.472;2023-08-08T10:41:02;22.05;43.10
72380;SHT30;60354;47.798;12.472;2023-08-08T10:43:30;21.87;45.14
72380;SHT30;60354;47.798;12.472;2023-08-08T10:46:00;21.90;44.82
72380;SHT30;60354;47.798;12.472;2023-08-08T10:48:26;21.87;45.31
72380;SHT30;60354;47.798;12.472;2023-08-08T10:50:55;22.01;46.78
72380;SHT30;60354;47.798;12.472;2023-08-08T10:53:28;22.44;47.80
72380;SHT30;60354;47.798;12.472;2023-08-08T10:56:01;22.31;46.44
72380;SHT30;60354;47.798;12.472;2023-08-08T10:58:41;22.41;46.98
72380;SHT30;60354;47.798;12.472;2023-08-08T11:01:07;22.39;44.98
72380;SHT30;60354;47.798;12.472;2023-08-08T11:03:35;22.29;46.11
72380;SHT30;60354;47.798;12.472;2023-08-08T11:06:03;22.05;46.84
72380;SHT30;60354;47.798;12.472;2023-08-08T11:08:32;21.91;47.20
72380;SHT30;60354;47.798;12.472;2023-08-08T11:10:59;21.50;47.40
72380;SHT30;60354;47.798;12.472;2023-08-08T11:13:25;21.66;45.99
72380;SHT30;60354;47.798;12.472;2023-08-08T11:15:51;22.09;47.32
72380;SHT30;60354;47.798;12.472;2023-08-08T11:18:17;22.38;47.31
72380;SHT30;60354;47.798;12.472;2023-08-08T11:20:43;22.35;46.84
72380;SHT30;60354;47.798;12.472;2023-08-08T11:23:09;22.31;44.83
72380;SHT30;60354;47.798;12.472;2023-08-08T11:25:39;22.19;45.82
72380;SHT30;60354;47.798;12.472;2023-08-08T11:28:04;22.19;45.98
72380;SHT30;60354;47.798;12.472;2023-08-08T11:30:32;22.35;46.36
72380;SHT30;60354;47.798;12.472;2023-08-08T11:32:59;22.29;46.87
72380;SHT30;60354;47.798;12.472;2023-08-08T11:35:26;22.25;46.76
72380;SHT30;60354;47.798;12.472;2023-08-08T11:37:53;22.12;46.45
72380;SHT30;60354;47.798;12.472;2023-08-08T11:40:19;21.76;46.83
72380;SHT30;60354;47.798;12.472;2023-08-08T11:42:46;21.54;47.59
72380;SHT30;60354;47.798;12.472;2023-08-08T11:45:12;21.87;48.70
72380;SHT30;60354;47.798;12.472;2023-08-08T11:47:39;21.78;47.81
72380;SHT30;60354;47.798;12.472;2023-08-08T11:50:07;22.07;47.05
72380;SHT30;60354;47.798;12.472;2023-08-08T11:52:36;22.15;47.00
72380;SHT30;60354;47.798;12.472;2023-08-08T11:55:02;22.14;45.91
72380;SHT30;60354;47.798;12.472;2023-08-08T11:57:27;21.98;46.12
72380;SHT30;60354;47.798;12.472;2023-08-08T11:59:54;22.22;46.24
72380;SHT30;60354;47.798;12.472;2023-08-08T12:02:19;22.29;44.25
72380;SHT30;60354;47.798;12.472;2023-08-08T12:04:46;22.44;46.00
72380;SHT30;60354;47.798;12.472;2023-08-08T12:07:11;22.27;45.24
72380;SHT30;60354;47.798;12.472;2023-08-08T12:09:37;22.00;45.76
72380;SHT30;60354;47.798;12.472;2023-08-08T12:12:03;22.04;46.49
72380;SHT30;60354;47.798;12.472;2023-08-08T12:14:29;21.76;46.63
72380;SHT30;60354;47.798;12.472;2023-08-08T12:16:55;21.94;45.94
72380;SHT30;60354;47.798;12.472;2023-08-08T12:19:24;21.94;47.08
72380;SHT30;60354;47.798;12.472;2023-08-08T12:21:51;21.63;46.02
72380;SHT30;60354;47.798;12.472;2023-08-08T12:24:19;21.37;44.65
72380;SHT30;60354;47.798;12.472;2023-08-08T12:26:45;21.51;46.65
72380;SHT30;60354;47.798;12.472;2023-08-08T12:29:11;21.73;45.96
72380;SHT30;60354;47.798;12.472;2023-08-08T12:31:37;22.02;47.56
72380;SHT30;60354;47.798;12.472;2023-08-08T12:34:03;22.19;47.10
72380;SHT30;60354;47.798;12.472;2023-08-08T12:36:30;22.68;45.43
72380;SHT30;60354;47.798;12.472;2023-08-08T12:38:55;22.39;46.31
72380;SHT30;60354;47.798;12.472;2023-08-08T12:41:21;22.45;44.45
72380;SHT30;60354;47.798;12.472;2023-08-08T12:43:46;22.09;42.96
72380;SHT30;60354;47.798;12.472;2023-08-08T12:46:12;22.11;43.90
72380;SHT30;60354;47.798;12.472;2023-08-08T12:48:37;22.32;44.35
72380;SHT30;60354;47.798;12.472;2023-08-08T12:51:02;22.41;45.19
72380;SHT30;60354;47.798;12.472;2023-08-08T12:53:28;22.22;45.65
72380;SHT30;60354;47.798;12.472;2023-08-08T12:55:54;22.42;46.04
72380;SHT30;60354;47.798;12.472;2023-08-08T12:58:20;22.28;44.21
72380;SHT30;60354;47.798;12.472;2023-08-08T13:00:45;22.17;45.23
72380;SHT30;60354;47.798;12.472;2023-08-08T13:03:11;22.29;44.67
72380;SHT30;60354;47.798;12.472;2023-08-08T13:05:38;22.08;45.95
72380;SHT30;60354;47.798;12.472;2023-08-08T13:08:04;21.98;45.55
72380;SHT30;60354;47.798;12.472;2023-08-08T13:10:30;22.19;45.30
72380;SHT30;60354;47.798;12.472;2023-08-08T13:12:56;22.32;45.42
72380;SHT30;60354;47.798;12.472;2023-08-08T13:15:21;22.24;44.23
72380;SHT30;60354;47.798;12.472;2023-08-08T13:17:47;22.48;45.60
72380;SHT30;60354;47.798;12.472;2023-08-08T13:20:12;22.76;46.51
72380;SHT30;60354;47.798;12.472;2023-08-08T13:22:38;22.76;45.98
72380;SHT30;60354;47.798;12.472;2023-08-08T13:25:05;22.70;46.73
72380;SHT30;60354;47.798;12.472;2023-08-08T13:27:31;22.70;45.71
72380;SHT30;60354;47.798;12.472;2023-08-08T13:29:57;22.45;44.18
72380;SHT30;60354;47.798;12.472;2023-08-08T13:32:23;22.49;43.76
72380;SHT30;60354;47.798;12.472;2023-08-08T13:34:48;22.41;45.54
72380;SHT30;60354;47.798;12.472;2023-08-08T13:37:15;22.29;45.42
72380;SHT30;60354;47.798;12.472;2023-08-08T13:39:41;22.02;43.96
72380;SHT30;60354;47.798;12.472;2023-08-08T13:42:07;21.98;45.20
72380;SHT30;60354;47.798;12.472;2023-08-08T13:44:32;22.15;45.93
72380;SHT30;60354;47.798;12.472;2023-08-08T13:46:58;22.52;46.57
72380;SHT30;60354;47.798;12.472;2023-08-08T13:49:23;22.65;44.99
72380;SHT30;60354;47.798;12.472;2023-08-08T13:51:52;22.79;44.67
72380;SHT30;60354;47.798;12.472;2023-08-08T13:54:19;22.95;43.65
72380;SHT30;60354;47.798;12.472;2023-08-08T13:56:44;22.86;43.36
72380;SHT30;60354;47.798;12.472;2023-08-08T13:59:10;23.02;41.66
72380;SHT30;60354;47.798;12.472;2023-08-08T14:01:36;23.18;44.23
72380;SHT30;60354;47.798;12.472;2023-08-08T14:04:02;23.02;44.06
72380;SHT30;60354;47.798;12.472;2023-08-08T14:06:27;22.99;43.80
72380;SHT30;60354;47.798;12.472;2023-08-08T14:08:54;22.95;44.27
72380;SHT30;60354;47.798;12.472;2023-08-08T14:11:19;22.49;42.33
72380;SHT30;60354;47.798;12.472;2023-08-08T14:13:45;22.11;42.40
72380;SHT30;60354;47.798;12.472;2023-08-08T14:16:11;22.36;42.31
72380;SHT30;60354;47.798;12.472;2023-08-08T14:18:36;22.49;43.83
72380;SHT30;60354;47.798;12.472;2023-08-08T14:21:02;22.53;44.76
72380;SHT30;60354;47.798;12.472;2023-08-08T14:23:30;22.63;44.36
72380;SHT30;60354;47.798;12.472;2023-08-08T14:25:55;22.93;43.75
72380;SHT30;60354;47.798;12.472;2023-08-08T14:28:20;22.95;43.73
72380;SHT30;60354;47.798;12.472;2023-08-08T14:30:46;23.07;43.39
72380;SHT30;60354;47.798;12.472;2023-08-08T14:33:14;22.97;43.06
72380;SHT30;60354;47.798;12.472;2023-08-08T14:35:40;22.87;43.01
72380;SHT30;60354;47.798;12.472;2023-08-08T14:38:05;22.77;43.32
72380;SHT30;60354;47.798;12.472;2023-08-08T14:40:31;22.49;43.47
72380;SHT30;60354;47.798;12.472;2023-08-08T14:42:57;22.55;44.08
72380;SHT30;60354;47.798;12.472;2023-08-08T14:45:23;22.39;44.91
72380;SHT30;60354;47.798;12.472;2023-08-08T14:47:49;22.45;45.13
72380;SHT30;60354;47.798;12.472;2023-08-08T14:50:16;22.68;43.62
72380;SHT30;60354;47.798;12.472;2023-08-08T14:52:41;22.58;43.25
72380;SHT30;60354;47.798;12.472;2023-08-08T14:55:07;22.77;43.00
72380;SHT30;60354;47.798;12.472;2023-08-08T14:57:33;22.90;44.40
72380;SHT30;60354;47.798;12.472;2023-08-08T14:59:58;23.08;44.13
72380;SHT30;60354;47.798;12.472;2023-08-08T15:02:25;23.00;43.27
72380;SHT30;60354;47.798;12.472;2023-08-08T15:04:51;22.93;42.71
72380;SHT30;60354;47.798;12.472;2023-08-08T15:07:16;22.75;42.77
72380;SHT30;60354;47.798;12.472;2023-08-08T15:09:42;22.56;43.37
72380;SHT30;60354;47.798;12.472;2023-08-08T15:12:08;22.59;44.78
72380;SHT30;60354;47.798;12.472;2023-08-08T15:14:34;22.59;45.07
72380;SHT30;60354;47.798;12.472;2023-08-08T15:16:59;22.65;45.13
72380;SHT30;60354;47.798;12.472;2023-08-08T15:19:25;22.55;44.18